This is the latest recevied weather packets stored in our database for station/object KA7EII-13. If no packets are shown the sender has not sent any weather packets the latest 10 day(s).
| Time | Temp. | Humidity | Pressure | Rain* | Wind** | Luminosity | Snow |
|---|---|---|---|---|---|---|---|
| 1777136954 | 7.78° C | 49% | 1100.9 hPa | 0 mm | - | 715 W/m² | - |
| 1777136649 | 7.78° C | 45% | 1100.9 hPa | 0 mm | - | 749 W/m² | - |
| 1777136347 | 6.67° C | 47% | 1100.6 hPa | 0 mm | - | 741 W/m² | - |
| 1777136044 | 6.67° C | 51% | 1100.8 hPa | 0 mm | - | 705 W/m² | - |
| 1777135739 | 7.22° C | 45% | 1100.6 hPa | 0 mm | - | 696 W/m² | - |
| 1777135436 | 6.67° C | 48% | 1100.6 hPa | 0 mm | - | 703 W/m² | - |
| 1777135133 | 7.22° C | 46% | 1101.1 hPa | 0 mm | - | 661 W/m² | - |
| 1777134830 | 6.67° C | 48% | 1101.1 hPa | 0 mm | - | 617 W/m² | - |
| 1777134526 | 6.67° C | 49% | 1100.7 hPa | 0 mm | - | 595 W/m² | - |
| 1777134222 | 5.56° C | 55% | 1100.8 hPa | 0 mm | - | 629 W/m² | - |
| 1777133920 | 5.56° C | 55% | 1101.2 hPa | 0 mm | - | 632 W/m² | - |
| 1777133615 | 5° C | 58% | 1100.9 hPa | 0 mm | - | 588 W/m² | - |
| 1777133314 | 4.44° C | 61% | 1101.1 hPa | 0 mm | - | 557 W/m² | - |
| 1777133008 | 3.89° C | 65% | 1100.9 hPa | 0 mm | - | 533 W/m² | - |
| 1777132705 | 3.33° C | 67% | 1100.8 hPa | 0 mm | - | 503 W/m² | - |
| 1777132402 | 2.78° C | 69% | 1100.8 hPa | 0 mm | - | 458 W/m² | - |
| 1777132099 | 2.22° C | 71% | 1101.3 hPa | 0 mm | - | 436 W/m² | - |
| 1777131794 | 2.22° C | 71% | 1101.2 hPa | 0 mm | - | 426 W/m² | - |
| 1777131492 | 1.67° C | 73% | 1100.9 hPa | 0 mm | - | 421 W/m² | - |
| 1777131191 | 1.11° C | 73% | 1101.2 hPa | 0 mm | - | 276 W/m² | - |
| 1777130887 | 2.22° C | 72% | 1100.9 hPa | 0 mm | - | 172 W/m² | - |
| 1777130583 | 2.78° C | 66% | 1100.9 hPa | 0 mm | - | 206 W/m² | - |
* Rain latest hour (hover to see other rain measurements)
** Current wind speed in m/s (hover to see current wind gust speed)